Time,TemperatureF,DewpointF,PressureIn,WindDirection,WindDirectionDegrees,WindSpeedMPH,WindSpeedGustMPH,Humidity,HourlyPrecipIn,Conditions,Clouds,dailyrainin,SoftwareType,DateUTC
2013-03-16 00:12:00,55.8,53.5,29.87,West,270,0.0,-999.0,92,-99.99,,,0.00,Acu-Link.com,2013-03-16 07:12:00,
2013-03-16 00:27:00,55.2,53.5,29.87,West,270,0.0,-999.0,94,-99.99,,,0.00,Acu-Link.com,2013-03-16 07:27:00,
2013-03-16 00:42:00,55.0,53.6,29.88,West,270,0.0,-999.0,95,-99.99,,,0.00,Acu-Link.com,2013-03-16 07:42:00,
2013-03-16 00:57:00,54.5,53.1,29.87,West,270,0.0,-999.0,95,-99.99,,,0.00,Acu-Link.com,2013-03-16 07:57:00,
2013-03-16 01:12:00,53.8,53.0,29.87,West,270,0.0,-999.0,97,-99.99,,,0.00,Acu-Link.com,2013-03-16 08:12:00,
2013-03-16 01:28:00,53.6,52.8,29.86,West,270,0.0,-999.0,97,-99.99,,,0.00,Acu-Link.com,2013-03-16 08:28:00,
2013-03-16 01:43:00,53.2,52.6,29.86,South,180,0.0,-999.0,98,-99.99,,,0.00,Acu-Link.com,2013-03-16 08:43:00,
2013-03-16 01:58:00,52.9,52.4,29.86,South,180,0.0,-999.0,98,-99.99,,,0.00,Acu-Link.com,2013-03-16 08:58:00,
2013-03-16 02:13:00,52.7,52.2,29.87,South,180,0.0,-999.0,98,-99.99,,,0.00,Acu-Link.com,2013-03-16 09:13:00,
2013-03-16 02:28:00,52.2,51.7,29.87,South,180,0.0,-999.0,98,-99.99,,,0.00,Acu-Link.com,2013-03-16 09:28:00,
2013-03-16 02:43:00,51.6,51.1,29.87,South,180,0.0,-999.0,98,-99.99,,,0.00,Acu-Link.com,2013-03-16 09:43:00,
2013-03-16 02:58:00,51.4,50.9,29.87,South,180,0.0,-999.0,98,-99.99,,,0.00,Acu-Link.com,2013-03-16 09:58:00,
2013-03-16 03:13:00,51.1,50.6,29.87,South,180,0.0,-999.0,98,-99.99,,,0.00,Acu-Link.com,2013-03-16 10:13:00,
2013-03-16 03:29:00,50.9,50.4,29.87,South,180,0.0,-999.0,98,-99.99,,,0.00,Acu-Link.com,2013-03-16 10:29:00,
2013-03-16 03:44:00,50.9,50.4,29.89,South,180,0.0,-999.0,98,-99.99,,,0.00,Acu-Link.com,2013-03-16 10:44:00,
2013-03-16 03:59:00,50.7,50.2,29.87,South,180,0.0,-999.0,98,-99.99,,,0.00,Acu-Link.com,2013-03-16 10:59:00,
2013-03-16 04:14:00,50.4,49.9,29.88,East,90,0.0,-999.0,98,-99.99,,,0.00,Acu-Link.com,2013-03-16 11:14:00,
2013-03-16 04:29:00,50.0,49.5,29.87,East,90,0.0,-999.0,98,-99.99,,,0.00,Acu-Link.com,2013-03-16 11:29:00,
2013-03-16 04:44:00,49.5,49.0,29.86,East,90,0.0,-999.0,98,-99.99,,,0.00,Acu-Link.com,2013-03-16 11:44:00,
2013-03-16 04:59:00,49.1,48.6,29.87,East,90,0.0,-999.0,98,-99.99,,,0.00,Acu-Link.com,2013-03-16 11:59:00,
2013-03-16 05:14:00,48.6,48.1,29.89,East,90,0.0,-999.0,98,-99.99,,,0.00,Acu-Link.com,2013-03-16 12:14:00,
2013-03-16 05:29:00,48.0,47.5,29.87,East,90,0.0,-999.0,98,-99.99,,,0.00,Acu-Link.com,2013-03-16 12:29:00,
2013-03-16 05:45:00,48.0,47.5,29.87,East,90,0.0,-999.0,98,-99.99,,,0.00,Acu-Link.com,2013-03-16 12:45:00,
2013-03-16 06:00:00,47.8,47.3,29.90,East,90,0.0,-999.0,98,-99.99,,,0.00,Acu-Link.com,2013-03-16 13:00:00,
2013-03-16 06:15:00,47.7,47.2,29.88,East,90,0.0,-999.0,98,-99.99,,,0.00,Acu-Link.com,2013-03-16 13:15:00,
2013-03-16 06:30:00,47.5,47.0,29.89,East,90,0.0,-999.0,98,-99.99,,,0.00,Acu-Link.com,2013-03-16 13:30:00,
2013-03-16 06:45:00,47.1,46.6,29.89,East,90,0.0,-999.0,98,-99.99,,,0.00,Acu-Link.com,2013-03-16 13:45:00,
2013-03-16 07:00:00,46.8,46.3,29.88,East,90,0.0,-999.0,98,-99.99,,,0.00,Acu-Link.com,2013-03-16 14:00:00,
2013-03-16 07:15:00,46.4,45.9,29.89,East,90,0.0,-999.0,98,-99.99,,,0.00,Acu-Link.com,2013-03-16 14:15:00,
2013-03-16 07:30:00,46.8,46.3,29.89,East,90,0.0,-999.0,98,-99.99,,,0.00,Acu-Link.com,2013-03-16 14:30:00,
2013-03-16 07:45:00,47.1,46.6,29.90,East,90,0.0,-999.0,98,-99.99,,,0.00,Acu-Link.com,2013-03-16 14:45:00,
2013-03-16 08:01:00,48.7,48.2,29.90,East,90,0.0,-999.0,98,-99.99,,,0.00,Acu-Link.com,2013-03-16 15:01:00,
2013-03-16 08:31:00,54.1,52.7,29.90,SSE,157,0.0,-999.0,95,-99.99,,,0.00,Acu-Link.com,2013-03-16 15:31:00,
2013-03-16 09:01:00,59.7,54.9,29.91,ENE,67,0.0,-999.0,84,-99.99,,,0.00,Acu-Link.com,2013-03-16 16:01:00,
2013-03-16 09:16:00,60.8,54.9,29.93,ENE,67,0.0,-999.0,81,-99.99,,,0.00,Acu-Link.com,2013-03-16 16:16:00,
2013-03-16 09:31:00,61.7,55.5,29.93,ENE,67,0.0,-999.0,80,-99.99,,,0.00,Acu-Link.com,2013-03-16 16:31:00,
2013-03-16 09:46:00,64.8,56.7,29.92,ENE,67,0.0,-999.0,75,-99.99,,,0.00,Acu-Link.com,2013-03-16 16:46:00,
2013-03-16 10:17:00,69.3,55.7,29.91,SSE,157,0.0,-999.0,62,-99.99,,,0.00,Acu-Link.com,2013-03-16 17:17:00,
2013-03-16 10:32:00,70.7,54.7,29.90,East,90,0.0,-999.0,57,-99.99,,,0.00,Acu-Link.com,2013-03-16 17:32:00,
2013-03-16 10:47:00,71.1,53.1,29.90,North,0,0.0,-999.0,53,-99.99,,,0.00,Acu-Link.com,2013-03-16 17:47:00,
2013-03-16 11:02:00,72.0,52.9,29.89,NE,45,0.0,-999.0,51,-99.99,,,0.00,Acu-Link.com,2013-03-16 18:02:00,
2013-03-16 11:17:00,72.0,52.3,29.90,NNE,22,0.0,-999.0,50,-99.99,,,0.00,Acu-Link.com,2013-03-16 18:17:00,
2013-03-16 11:32:00,73.2,52.9,29.89,West,270,0.0,-999.0,49,-99.99,,,0.00,Acu-Link.com,2013-03-16 18:32:00,
2013-03-16 11:47:00,72.3,53.7,29.90,North,0,0.0,-999.0,52,-99.99,,,0.00,Acu-Link.com,2013-03-16 18:47:00,
2013-03-16 12:02:00,72.5,53.3,29.92,West,270,0.0,-999.0,51,-99.99,,,0.00,Acu-Link.com,2013-03-16 19:02:00,
2013-03-16 12:17:00,74.3,53.9,29.91,WNW,292,3.7,-999.0,49,-99.99,,,0.00,Acu-Link.com,2013-03-16 19:17:00,
2013-03-16 12:33:00,75.7,54.0,29.90,NNE,22,2.2,-999.0,47,-99.99,,,0.00,Acu-Link.com,2013-03-16 19:33:00,
2013-03-16 12:48:00,75.9,53.6,29.88,NE,45,0.0,-999.0,46,-99.99,,,0.00,Acu-Link.com,2013-03-16 19:48:00,
2013-03-16 13:03:00,76.6,53.0,29.88,West,270,0.0,-999.0,44,-99.99,,,0.00,Acu-Link.com,2013-03-16 20:03:00,
2013-03-16 13:18:00,77.9,51.6,29.87,NNE,22,3.7,-999.0,40,-99.99,,,0.00,Acu-Link.com,2013-03-16 20:18:00,
2013-03-16 13:33:00,76.8,49.3,29.85,NNE,22,2.7,-999.0,38,-99.99,,,0.00,Acu-Link.com,2013-03-16 20:33:00,
2013-03-16 13:48:00,75.6,47.5,29.85,NNE,22,1.7,-999.0,37,-99.99,,,0.00,Acu-Link.com,2013-03-16 20:48:00,
2013-03-16 14:03:00,75.0,48.3,29.83,NNE,22,0.0,-999.0,39,-99.99,,,0.00,Acu-Link.com,2013-03-16 21:03:00,
2013-03-16 14:18:00,74.5,48.6,29.85,NNE,22,0.0,-999.0,40,-99.99,,,0.00,Acu-Link.com,2013-03-16 21:18:00,
2013-03-16 14:33:00,75.0,49.0,29.83,NE,45,2.2,-999.0,40,-99.99,,,0.00,Acu-Link.com,2013-03-16 21:33:00,
2013-03-16 14:49:00,75.7,47.6,29.83,NE,45,0.0,-999.0,37,-99.99,,,0.00,Acu-Link.com,2013-03-16 21:49:00,
2013-03-16 15:04:00,76.1,47.2,29.82,NW,315,0.0,-999.0,36,-99.99,,,0.00,Acu-Link.com,2013-03-16 22:04:00,
2013-03-16 15:19:00,77.0,46.5,29.82,NNW,337,1.7,-999.0,34,-99.99,,,0.00,Acu-Link.com,2013-03-16 22:19:00,
2013-03-16 15:34:00,77.0,45.7,29.81,West,270,0.0,-999.0,33,-99.99,,,0.00,Acu-Link.com,2013-03-16 22:34:00,
2013-03-16 15:49:00,77.4,45.2,29.82,NE,45,0.0,-999.0,32,-99.99,,,0.00,Acu-Link.com,2013-03-16 22:49:00,
2013-03-16 16:04:00,77.2,45.0,29.81,WNW,292,1.7,-999.0,32,-99.99,,,0.00,Acu-Link.com,2013-03-16 23:04:00,
2013-03-16 16:19:00,77.0,43.2,29.82,North,0,1.1,-999.0,30,-99.99,,,0.00,Acu-Link.com,2013-03-16 23:19:00,
2013-03-16 16:34:00,76.6,41.0,29.81,North,0,0.0,-999.0,28,-99.99,,,0.00,Acu-Link.com,2013-03-16 23:34:00,
2013-03-16 16:49:00,76.5,38.0,29.83,NNW,337,0.0,-999.0,25,-99.99,,,0.00,Acu-Link.com,2013-03-16 23:49:00,
2013-03-16 17:04:00,77.5,40.9,29.80,North,0,2.2,-999.0,27,-99.99,,,0.00,Acu-Link.com,2013-03-17 00:04:00,
2013-03-16 17:20:00,78.4,39.7,29.80,WNW,292,0.0,-999.0,25,-99.99,,,0.00,Acu-Link.com,2013-03-17 00:20:00,
2013-03-16 17:35:00,78.3,40.6,29.81,WNW,292,0.0,-999.0,26,-99.99,,,0.00,Acu-Link.com,2013-03-17 00:35:00,
2013-03-16 17:50:00,77.2,47.4,29.80,WNW,292,0.0,-999.0,35,-99.99,,,0.00,Acu-Link.com,2013-03-17 00:50:00,
2013-03-16 18:05:00,75.0,51.6,29.79,SSW,202,0.0,-999.0,44,-99.99,,,0.00,Acu-Link.com,2013-03-17 01:05:00,
2013-03-16 18:20:00,74.3,51.6,29.81,SSW,202,0.0,-999.0,45,-99.99,,,0.00,Acu-Link.com,2013-03-17 01:20:00,
2013-03-16 18:35:00,73.4,50.8,29.79,West,270,0.0,-999.0,45,-99.99,,,0.00,Acu-Link.com,2013-03-17 01:35:00,
2013-03-16 18:50:00,72.0,50.7,29.80,West,270,0.0,-999.0,47,-99.99,,,0.00,Acu-Link.com,2013-03-17 01:50:00,
2013-03-16 19:05:00,70.9,50.2,29.80,West,270,0.0,-999.0,48,-99.99,,,0.00,Acu-Link.com,2013-03-17 02:05:00,
2013-03-16 19:20:00,69.4,52.5,29.80,South,180,1.7,-999.0,55,-99.99,,,0.00,Acu-Link.com,2013-03-17 02:20:00,
2013-03-16 19:36:00,68.5,53.1,29.80,South,180,0.0,-999.0,58,-99.99,,,0.00,Acu-Link.com,2013-03-17 02:36:00,
2013-03-16 19:51:00,67.5,53.1,29.81,SSE,157,1.7,-999.0,60,-99.99,,,0.00,Acu-Link.com,2013-03-17 02:51:00,
2013-03-16 20:36:00,65.1,52.6,29.81,SSW,202,0.0,-999.0,64,-99.99,,,0.00,Acu-Link.com,2013-03-17 03:36:00,
2013-03-16 20:51:00,63.7,52.1,29.83,SSW,202,0.0,-999.0,66,-99.99,,,0.00,Acu-Link.com,2013-03-17 03:51:00,
2013-03-16 21:21:00,62.4,51.7,29.83,SSW,202,0.0,-999.0,68,-99.99,,,0.00,Acu-Link.com,2013-03-17 04:21:00,
2013-03-16 21:36:00,61.5,51.6,29.84,SSW,202,0.0,-999.0,70,-99.99,,,0.00,Acu-Link.com,2013-03-17 04:36:00,
2013-03-16 21:52:00,60.8,52.1,29.85,SSW,202,0.0,-999.0,73,-99.99,,,0.00,Acu-Link.com,2013-03-17 04:52:00,
2013-03-16 22:07:00,59.9,51.6,29.85,SSW,202,0.0,-999.0,74,-99.99,,,0.00,Acu-Link.com,2013-03-17 05:07:00,
2013-03-16 22:22:00,59.5,51.6,29.87,SSW,202,0.0,-999.0,75,-99.99,,,0.00,Acu-Link.com,2013-03-17 05:22:00,
2013-03-16 22:37:00,59.0,51.8,29.87,SSW,202,0.0,-999.0,77,-99.99,,,0.00,Acu-Link.com,2013-03-17 05:37:00,
2013-03-16 22:52:00,59.7,51.0,29.88,NE,45,0.0,-999.0,73,-99.99,,,0.00,Acu-Link.com,2013-03-17 05:52:00,
2013-03-16 23:07:00,59.9,50.8,29.89,NNW,337,0.0,-999.0,72,-99.99,,,0.00,Acu-Link.com,2013-03-17 06:07:00,
2013-03-16 23:22:00,60.1,52.5,29.89,NNE,22,0.0,-999.0,76,-99.99,,,0.00,Acu-Link.com,2013-03-17 06:22:00,
2013-03-16 23:37:00,59.7,50.7,29.90,NNW,337,0.0,-999.0,72,-99.99,,,0.00,Acu-Link.com,2013-03-17 06:37:00,
2013-03-16 23:52:00,59.5,48.9,29.90,NNW,337,0.0,-999.0,68,-99.99,,,0.00,Acu-Link.com,2013-03-17 06:52:00,